createdAt,value
2023-05-06T00:01:34.638Z,14.60
2023-05-06T00:04:01.366Z,14.90
2023-05-06T00:06:29.236Z,14.80
2023-05-06T00:08:55.928Z,14.80
2023-05-06T00:11:22.490Z,14.80
2023-05-06T00:13:49.094Z,14.80
2023-05-06T00:16:16.193Z,14.70
2023-05-06T00:18:42.867Z,12.50
2023-05-06T00:21:09.609Z,14.70
2023-05-06T00:23:36.151Z,14.70
2023-05-06T00:26:02.696Z,14.60
2023-05-06T00:28:29.639Z,14.60
2023-05-06T00:30:56.205Z,14.60
2023-05-06T00:33:22.821Z,14.60
2023-05-06T00:35:49.422Z,14.60
2023-05-06T00:38:16.904Z,14.60
2023-05-06T00:40:43.502Z,14.60
2023-05-06T00:43:10.093Z,14.60
2023-05-06T00:45:37.098Z,14.50
2023-05-06T00:48:04.974Z,14.50
2023-05-06T00:50:33.237Z,14.60
2023-05-06T00:53:00.816Z,14.50
2023-05-06T00:55:27.464Z,14.50
2023-05-06T00:57:54.694Z,14.50
2023-05-06T01:00:21.702Z,14.40
2023-05-06T01:02:48.834Z,14.40
2023-05-06T01:05:21.024Z,14.40
2023-05-06T01:08:20.083Z,14.40
2023-05-06T01:10:54.079Z,14.40
2023-05-06T01:13:24.039Z,14.40
2023-05-06T01:15:53.939Z,14.40
2023-05-06T01:18:25.539Z,14.40
2023-05-06T01:20:53.039Z,14.40
2023-05-06T01:23:19.804Z,14.30
2023-05-06T01:25:46.360Z,14.40
2023-05-06T01:28:13.198Z,14.30
2023-05-06T01:30:52.305Z,14.30
2023-05-06T01:33:22.768Z,14.30
2023-05-06T01:35:49.306Z,15.40
2023-05-06T01:38:21.109Z,14.30
2023-05-06T01:40:49.955Z,14.30
2023-05-06T01:43:16.855Z,14.40
2023-05-06T01:45:43.952Z,14.30
2023-05-06T01:48:11.055Z,14.30
2023-05-06T01:50:37.886Z,12.40
2023-05-06T01:53:04.567Z,14.40
2023-05-06T01:55:32.182Z,14.20
2023-05-06T01:57:58.720Z,14.30
2023-05-06T02:00:25.659Z,14.20
2023-05-06T02:02:52.559Z,14.20
2023-05-06T02:05:19.260Z,14.30
2023-05-06T02:07:45.797Z,14.20
2023-05-06T02:10:12.338Z,14.20
2023-05-06T02:12:38.944Z,14.10
2023-05-06T02:15:05.896Z,14.10
2023-05-06T02:17:34.304Z,14.40
2023-05-06T02:20:00.972Z,14.00
2023-05-06T02:22:27.685Z,14.00
2023-05-06T02:24:54.265Z,14.00
2023-05-06T02:27:21.045Z,13.90
2023-05-06T02:29:47.590Z,13.90
2023-05-06T02:32:14.238Z,13.80
2023-05-06T02:34:40.890Z,13.90
2023-05-06T02:37:07.465Z,13.80
2023-05-06T02:39:34.112Z,13.80
2023-05-06T02:42:01.138Z,13.80
2023-05-06T02:44:27.701Z,13.90
2023-05-06T02:46:54.235Z,13.90
2023-05-06T02:49:21.164Z,15.50
2023-05-06T02:51:47.738Z,13.90
2023-05-06T02:56:43.122Z,13.80
2023-05-06T02:59:09.843Z,13.90
2023-05-06T03:01:36.427Z,13.90
2023-05-06T03:04:03.784Z,13.90
2023-05-06T03:06:31.549Z,13.90
2023-05-06T03:08:58.102Z,13.90
2023-05-06T03:11:24.773Z,13.90
2023-05-06T03:13:51.459Z,13.90
2023-05-06T03:16:18.069Z,13.90
2023-05-06T03:18:44.781Z,13.90
2023-05-06T03:21:12.636Z,13.90
2023-05-06T03:23:39.261Z,13.90
2023-05-06T03:26:06.026Z,13.90
2023-05-06T03:28:32.568Z,13.90
2023-05-06T03:30:59.546Z,13.90
2023-05-06T03:33:26.149Z,16.40
2023-05-06T03:35:52.884Z,14.00
2023-05-06T03:38:19.817Z,13.90
2023-05-06T03:40:46.434Z,13.90
2023-05-06T03:43:12.999Z,13.90
2023-05-06T03:45:39.529Z,13.90
2023-05-06T03:48:06.377Z,14.00
2023-05-06T03:50:33.063Z,14.00
2023-05-06T03:52:59.693Z,14.00
2023-05-06T03:55:26.318Z,14.00
2023-05-06T03:57:52.897Z,14.00
2023-05-06T04:00:20.128Z,14.00
2023-05-06T04:02:46.702Z,14.00
2023-05-06T04:05:13.272Z,14.00
2023-05-06T04:07:39.838Z,14.00
2023-05-06T04:10:06.859Z,14.10
2023-05-06T04:12:34.207Z,14.00
2023-05-06T04:15:01.064Z,13.90
2023-05-06T04:17:27.698Z,14.00
2023-05-06T04:19:54.307Z,13.90
2023-05-06T04:22:20.985Z,14.00
2023-05-06T04:24:47.621Z,14.00
2023-05-06T04:27:14.756Z,14.30
2023-05-06T04:29:41.452Z,14.10
2023-05-06T04:32:10.305Z,14.10
2023-05-06T04:34:37.198Z,14.20
2023-05-06T04:37:03.946Z,14.20
2023-05-06T04:39:32.053Z,14.30
2023-05-06T04:41:58.640Z,14.30
2023-05-06T04:44:25.202Z,14.40
2023-05-06T04:46:51.749Z,14.40
2023-05-06T04:49:18.279Z,14.40
2023-05-06T04:51:45.218Z,15.80
2023-05-06T04:54:11.790Z,14.50
2023-05-06T04:56:38.451Z,14.60
2023-05-06T04:59:05.037Z,14.80
2023-05-06T05:01:31.678Z,14.80
2023-05-06T05:03:58.372Z,14.90
2023-05-06T05:06:25.037Z,15.00
2023-05-06T05:08:51.604Z,15.10
2023-05-06T05:11:18.282Z,15.10
2023-05-06T05:13:45.001Z,15.60
2023-05-06T05:16:11.654Z,15.20
2023-05-06T05:18:38.270Z,15.30
2023-05-06T05:21:04.865Z,15.20
2023-05-06T05:23:31.618Z,15.20
2023-05-06T05:25:58.276Z,15.20
2023-05-06T05:28:24.839Z,15.30
2023-05-06T05:30:51.814Z,15.30
2023-05-06T05:33:18.546Z,15.40
2023-05-06T05:35:45.432Z,15.40
2023-05-06T05:38:14.031Z,15.50
2023-05-06T05:40:40.688Z,15.60
2023-05-06T05:43:07.913Z,15.70
2023-05-06T05:45:34.555Z,15.80
2023-05-06T05:48:01.361Z,15.90
2023-05-06T05:50:28.033Z,16.10
2023-05-06T05:52:54.663Z,16.10
2023-05-06T05:55:21.358Z,16.20
2023-05-06T05:57:47.930Z,16.50
2023-05-06T06:00:15.080Z,16.80
2023-05-06T06:02:41.758Z,17.10
2023-05-06T06:05:08.939Z,17.60
2023-05-06T06:07:35.603Z,17.70
2023-05-06T06:10:02.216Z,18.50
2023-05-06T06:12:28.946Z,18.40
2023-05-06T06:14:55.893Z,18.60
2023-05-06T06:17:22.511Z,18.60
2023-05-06T06:19:50.630Z,18.50
2023-05-06T06:22:17.649Z,18.50
2023-05-06T06:24:44.222Z,18.40
2023-05-06T06:27:10.930Z,18.30
2023-05-06T06:29:37.653Z,18.30
2023-05-06T06:32:04.469Z,18.30
2023-05-06T06:34:31.094Z,18.50
2023-05-06T06:36:57.861Z,18.60
2023-05-06T06:39:24.596Z,19.00
2023-05-06T06:41:51.389Z,19.40
2023-05-06T06:44:18.071Z,19.90
2023-05-06T06:46:44.978Z,20.30
2023-05-06T06:49:14.756Z,20.30
2023-05-06T06:51:41.305Z,20.50
2023-05-06T06:54:07.880Z,21.40
2023-05-06T06:56:34.540Z,21.60
2023-05-06T06:59:01.265Z,21.50
2023-05-06T07:01:28.300Z,21.30
2023-05-06T07:03:54.998Z,21.30
2023-05-06T07:06:21.603Z,21.40
2023-05-06T07:08:48.451Z,22.20
2023-05-06T07:11:15.049Z,23.00
2023-05-06T07:13:41.644Z,22.40
2023-05-06T07:16:09.209Z,22.00
2023-05-06T07:18:35.889Z,21.60
2023-05-06T07:21:02.456Z,21.50
2023-05-06T07:23:31.944Z,21.00
2023-05-06T07:25:59.466Z,20.90
2023-05-06T07:28:26.197Z,20.90
2023-05-06T07:30:53.251Z,21.30
2023-05-06T07:33:19.875Z,21.70
2023-05-06T07:35:46.482Z,21.70
2023-05-06T07:38:13.280Z,21.70
2023-05-06T07:40:39.881Z,21.60
2023-05-06T07:43:07.068Z,21.50
2023-05-06T07:45:33.714Z,21.80
2023-05-06T07:48:00.578Z,22.20
2023-05-06T07:50:27.258Z,22.50
2023-05-06T07:52:54.122Z,23.00
2023-05-06T07:55:20.801Z,23.70
2023-05-06T07:57:47.501Z,24.30
2023-05-06T08:00:14.398Z,24.60
2023-05-06T08:02:44.607Z,25.10
2023-05-06T08:05:11.839Z,25.60
2023-05-06T08:07:40.982Z,26.10
2023-05-06T08:10:08.218Z,26.40
2023-05-06T08:12:35.540Z,27.00
2023-05-06T08:15:02.867Z,27.40
2023-05-06T08:17:29.617Z,27.80
2023-05-06T08:19:56.228Z,27.20
2023-05-06T08:22:22.800Z,26.40
2023-05-06T08:24:49.372Z,25.70
2023-05-06T08:27:15.944Z,25.60
2023-05-06T08:29:42.520Z,25.10
2023-05-06T08:32:09.320Z,24.70
2023-05-06T08:34:36.075Z,24.40
2023-05-06T08:37:02.614Z,24.10
2023-05-06T08:39:30.718Z,23.60
2023-05-06T08:41:57.825Z,23.30
2023-05-06T08:44:24.791Z,24.10
2023-05-06T08:46:51.512Z,25.20
2023-05-06T08:49:18.150Z,26.00
2023-05-06T08:51:45.424Z,26.00
2023-05-06T08:54:13.099Z,25.20
2023-05-06T08:56:41.940Z,25.00
2023-05-06T08:59:09.282Z,25.70
2023-05-06T09:01:36.863Z,27.10
2023-05-06T09:04:06.486Z,28.70
2023-05-06T09:06:34.330Z,29.80
2023-05-06T09:09:00.916Z,29.40
2023-05-06T09:11:29.342Z,28.50
2023-05-06T09:14:10.448Z,27.70
2023-05-06T09:16:37.467Z,26.90
2023-05-06T09:19:04.245Z,26.90
2023-05-06T09:21:41.120Z,27.20
2023-05-06T09:24:08.803Z,26.30
2023-05-06T09:26:36.670Z,25.50
2023-05-06T09:29:03.812Z,23.60
2023-05-06T09:31:30.849Z,24.80
2023-05-06T09:33:58.409Z,24.50
2023-05-06T09:36:25.848Z,24.10
2023-05-06T09:38:54.147Z,23.90
2023-05-06T09:41:21.574Z,25.10
2023-05-06T09:43:49.238Z,26.40
2023-05-06T09:46:16.842Z,26.60
2023-05-06T09:48:43.453Z,26.70
2023-05-06T09:51:10.846Z,28.10
2023-05-06T09:53:37.747Z,28.40
2023-05-06T09:56:07.811Z,28.30
2023-05-06T09:58:35.567Z,27.80
2023-05-06T10:01:06.373Z,27.40
2023-05-06T10:03:33.531Z,26.70
2023-05-06T10:06:00.879Z,26.30
2023-05-06T10:08:27.707Z,25.50
2023-05-06T10:10:54.982Z,24.90
2023-05-06T10:13:22.506Z,24.60
2023-05-06T10:15:50.032Z,24.50
2023-05-06T10:18:18.021Z,25.00
2023-05-06T10:20:46.358Z,25.80
2023-05-06T10:23:21.728Z,25.90
2023-05-06T10:25:52.020Z,26.00
2023-05-06T10:28:30.574Z,26.40
2023-05-06T10:30:58.310Z,27.40
2023-05-06T10:33:26.158Z,28.20
2023-05-06T10:36:00.230Z,29.30
2023-05-06T10:38:29.748Z,29.70
2023-05-06T10:40:56.726Z,30.10
2023-05-06T10:43:23.348Z,31.20
2023-05-06T10:45:59.452Z,31.90
2023-05-06T10:48:26.119Z,32.30
2023-05-06T10:51:14.163Z,31.70
2023-05-06T10:53:55.798Z,30.90
2023-05-06T10:56:22.749Z,29.90
2023-05-06T10:58:49.343Z,29.00
2023-05-06T11:01:16.544Z,28.10
2023-05-06T11:03:43.614Z,27.90
2023-05-06T11:06:10.319Z,26.20
2023-05-06T11:08:37.240Z,27.30
2023-05-06T11:11:23.824Z,26.70
2023-05-06T11:13:52.440Z,26.50
2023-05-06T11:16:46.519Z,26.00
2023-05-06T11:19:18.096Z,25.70
2023-05-06T11:21:44.695Z,25.60
2023-05-06T11:24:11.811Z,25.80
2023-05-06T11:26:40.060Z,26.00
2023-05-06T11:29:07.509Z,26.20
2023-05-06T11:31:41.124Z,26.10
2023-05-06T11:34:09.063Z,25.90
2023-05-06T11:36:37.167Z,25.60
2023-05-06T11:39:08.717Z,25.50
2023-05-06T11:41:38.713Z,25.10
2023-05-06T11:44:05.369Z,25.00
2023-05-06T11:46:33.427Z,25.10
2023-05-06T11:49:00.641Z,24.90
2023-05-06T11:51:27.358Z,24.90
2023-05-06T11:54:03.453Z,24.60
2023-05-06T11:56:30.086Z,24.70
2023-05-06T11:58:56.702Z,24.70
2023-05-06T12:01:23.232Z,25.20
2023-05-06T12:03:49.883Z,25.90
2023-05-06T12:06:16.663Z,26.70
2023-05-06T12:08:43.311Z,27.60
2023-05-06T12:11:10.278Z,28.20
2023-05-06T12:13:37.720Z,28.50
2023-05-06T12:16:05.268Z,28.50
2023-05-06T12:18:32.449Z,28.40
2023-05-06T12:21:02.499Z,28.70
2023-05-06T12:23:29.151Z,29.60
2023-05-06T12:26:03.903Z,30.40
2023-05-06T12:28:31.676Z,31.10
2023-05-06T12:30:58.220Z,31.80
2023-05-06T12:33:24.835Z,32.50
2023-05-06T12:35:52.552Z,32.90
2023-05-06T12:38:19.144Z,33.40
2023-05-06T12:40:53.052Z,32.70
2023-05-06T12:43:28.381Z,32.10
2023-05-06T12:46:05.452Z,32.00
2023-05-06T12:48:33.561Z,32.10
2023-05-06T12:51:00.563Z,31.50
2023-05-06T12:53:31.543Z,30.60
2023-05-06T12:55:58.091Z,30.00
2023-05-06T12:58:24.704Z,29.70
2023-05-06T13:00:51.487Z,29.20
2023-05-06T13:03:19.254Z,27.40
2023-05-06T13:05:50.412Z,28.30
2023-05-06T13:08:17.195Z,28.10
2023-05-06T13:10:43.958Z,27.50
2023-05-06T13:13:10.659Z,27.10
2023-05-06T13:15:37.481Z,26.80
2023-05-06T13:18:04.323Z,26.90
2023-05-06T13:20:32.064Z,27.00
2023-05-06T13:22:58.627Z,27.00
2023-05-06T13:25:25.232Z,27.10
2023-05-06T13:27:52.719Z,28.20
2023-05-06T13:30:19.279Z,29.00
2023-05-06T13:32:46.716Z,29.30
2023-05-06T13:35:13.486Z,28.90
2023-05-06T13:37:40.103Z,28.80
2023-05-06T13:40:07.026Z,28.10
2023-05-06T13:42:33.578Z,27.90
2023-05-06T13:45:00.321Z,27.70
2023-05-06T13:47:27.117Z,28.40
2023-05-06T13:49:53.787Z,29.00
2023-05-06T13:52:20.598Z,29.70
2023-05-06T13:54:47.253Z,30.50
2023-05-06T13:57:13.784Z,30.90
2023-05-06T13:59:40.781Z,31.30
2023-05-06T14:02:09.632Z,31.90
2023-05-06T14:04:36.720Z,31.90
2023-05-06T14:07:03.668Z,31.90
2023-05-06T14:09:30.199Z,31.20
2023-05-06T14:11:56.716Z,31.40
2023-05-06T14:14:23.416Z,31.60
2023-05-06T14:16:53.330Z,31.90
2023-05-06T14:19:19.986Z,31.90
2023-05-06T14:21:46.576Z,32.30
2023-05-06T14:24:13.251Z,34.60
2023-05-06T14:26:40.398Z,32.20
2023-05-06T14:29:07.037Z,31.60
2023-05-06T14:31:34.236Z,30.60
2023-05-06T14:34:01.825Z,30.10
2023-05-06T14:36:28.410Z,29.50
2023-05-06T14:38:55.924Z,29.10
2023-05-06T14:41:22.487Z,28.90
2023-05-06T14:43:49.106Z,29.00
2023-05-06T14:46:17.528Z,29.30
2023-05-06T14:48:45.520Z,29.20
2023-05-06T14:51:12.067Z,29.50
2023-05-06T14:53:38.674Z,29.60
2023-05-06T14:56:07.321Z,29.60
2023-05-06T14:58:33.852Z,29.20
2023-05-06T15:01:00.567Z,29.00
2023-05-06T15:03:27.367Z,28.70
2023-05-06T15:05:53.949Z,28.50
2023-05-06T15:08:20.809Z,28.30
2023-05-06T15:10:50.810Z,28.30
2023-05-06T15:13:17.509Z,28.20
2023-05-06T15:15:44.400Z,27.90
2023-05-06T15:18:13.113Z,28.00
2023-05-06T15:20:39.720Z,27.90
2023-05-06T15:23:06.270Z,27.90
2023-05-06T15:25:35.978Z,27.80
2023-05-06T15:28:04.234Z,27.70
2023-05-06T15:30:31.060Z,27.60
2023-05-06T15:32:57.808Z,27.40
2023-05-06T15:35:24.366Z,27.10
2023-05-06T15:37:55.392Z,27.00
2023-05-06T15:40:25.424Z,27.10
2023-05-06T15:42:52.305Z,27.10
2023-05-06T15:45:19.791Z,26.90
2023-05-06T15:47:48.462Z,26.80
2023-05-06T15:50:29.031Z,26.80
2023-05-06T15:52:59.024Z,26.60
2023-05-06T15:55:26.561Z,26.40
2023-05-06T15:57:54.684Z,26.30
2023-05-06T16:00:21.500Z,26.30
2023-05-06T16:02:48.561Z,26.10
2023-05-06T16:05:15.930Z,25.90
2023-05-06T16:07:42.641Z,25.90
2023-05-06T16:10:09.500Z,25.80
2023-05-06T16:12:36.487Z,25.60
2023-05-06T16:15:03.741Z,25.60
2023-05-06T16:17:30.884Z,25.50
2023-05-06T16:19:57.598Z,25.40
2023-05-06T16:22:24.415Z,25.30
2023-05-06T16:24:50.968Z,25.00
2023-05-06T16:27:17.597Z,24.90
2023-05-06T16:29:44.256Z,24.90
2023-05-06T16:32:10.952Z,23.50
2023-05-06T16:34:40.234Z,24.70
2023-05-06T16:37:07.838Z,24.50
2023-05-06T16:39:34.484Z,24.10
2023-05-06T16:42:01.873Z,24.20
2023-05-06T16:44:28.941Z,24.10
2023-05-06T16:46:56.062Z,24.00
2023-05-06T16:49:22.696Z,24.00
2023-05-06T16:51:49.346Z,23.90
2023-05-06T16:54:15.985Z,23.70
2023-05-06T16:56:51.304Z,23.60
2023-05-06T16:59:21.446Z,23.50
2023-05-06T17:01:48.723Z,23.50
2023-05-06T17:04:16.040Z,24.30
2023-05-06T17:06:42.703Z,23.30
2023-05-06T17:09:09.246Z,24.00
2023-05-06T17:11:36.869Z,23.10
2023-05-06T17:14:03.601Z,22.90
2023-05-06T17:16:30.683Z,22.90
2023-05-06T17:18:57.387Z,22.80
2023-05-06T17:21:25.517Z,22.70
2023-05-06T17:23:54.476Z,22.60
2023-05-06T17:26:21.434Z,22.50
2023-05-06T17:28:48.342Z,22.50
2023-05-06T17:31:15.930Z,22.50
2023-05-06T17:33:43.216Z,22.30
2023-05-06T17:36:09.801Z,22.60
2023-05-06T17:38:36.450Z,22.00
2023-05-06T17:41:03.042Z,21.90
2023-05-06T17:43:29.617Z,21.80
2023-05-06T17:45:56.231Z,21.70
2023-05-06T17:48:22.874Z,21.50
2023-05-06T17:50:49.440Z,21.40
2023-05-06T17:53:16.033Z,21.30
2023-05-06T17:55:42.621Z,22.10
2023-05-06T17:58:09.925Z,21.20
2023-05-06T18:00:37.848Z,21.00
2023-05-06T18:03:04.612Z,20.90
2023-05-06T18:05:31.318Z,20.80
2023-05-06T18:07:58.423Z,20.70
2023-05-06T18:10:26.866Z,20.60
2023-05-06T18:12:54.720Z,20.50
2023-05-06T18:15:21.393Z,20.50
2023-05-06T18:17:48.085Z,20.30
2023-05-06T18:20:14.747Z,20.10
2023-05-06T18:22:42.829Z,20.00
2023-05-06T18:25:09.849Z,19.90
2023-05-06T18:27:37.093Z,19.80
2023-05-06T18:30:04.812Z,19.70
2023-05-06T18:32:31.708Z,19.50
2023-05-06T18:34:58.347Z,19.40
2023-05-06T18:37:25.153Z,19.30
2023-05-06T18:39:51.749Z,19.20
2023-05-06T18:42:18.552Z,19.10
2023-05-06T18:44:45.388Z,19.00
2023-05-06T18:47:11.997Z,18.90
2023-05-06T18:49:38.862Z,18.90
2023-05-06T18:52:06.403Z,18.70
2023-05-06T18:54:33.141Z,18.60
2023-05-06T18:57:01.019Z,18.70
2023-05-06T18:59:27.696Z,18.40
2023-05-06T19:01:54.248Z,18.40
2023-05-06T19:04:20.863Z,18.30
2023-05-06T19:06:47.993Z,18.20
2023-05-06T19:09:14.988Z,18.10
2023-05-06T19:11:41.613Z,18.10
2023-05-06T19:14:08.190Z,18.00
2023-05-06T19:16:34.900Z,17.90
2023-05-06T19:19:03.025Z,17.80
2023-05-06T19:21:29.673Z,16.00
2023-05-06T19:24:00.118Z,17.80
2023-05-06T19:26:27.123Z,17.70
2023-05-06T19:28:54.075Z,17.60
2023-05-06T19:31:21.057Z,17.60
2023-05-06T19:33:48.536Z,17.60
2023-05-06T19:36:16.344Z,17.60
2023-05-06T19:38:42.946Z,17.50
2023-05-06T19:41:10.675Z,17.40
2023-05-06T19:43:43.860Z,17.70
2023-05-06T19:46:10.851Z,17.40
2023-05-06T19:48:38.866Z,17.40
2023-05-06T19:51:06.480Z,17.40
2023-05-06T19:53:33.931Z,17.40
2023-05-06T19:56:10.548Z,17.40
2023-05-06T19:58:37.517Z,17.40
2023-05-06T20:01:04.153Z,17.30
2023-05-06T20:03:31.527Z,17.30
2023-05-06T20:05:58.580Z,17.30
2023-05-06T20:08:26.004Z,17.30
2023-05-06T20:10:52.789Z,17.30
2023-05-06T20:13:19.734Z,17.20
2023-05-06T20:15:47.631Z,17.30
2023-05-06T20:18:14.499Z,17.20
2023-05-06T20:20:41.120Z,17.20
2023-05-06T20:23:07.847Z,17.20
2023-05-06T20:25:36.861Z,17.10
2023-05-06T20:28:04.663Z,17.10
2023-05-06T20:30:31.245Z,17.10
2023-05-06T20:32:57.985Z,17.00
2023-05-06T20:35:24.888Z,17.00
2023-05-06T20:37:51.956Z,16.90
2023-05-06T20:40:18.556Z,16.90
2023-05-06T20:42:45.317Z,14.20
2023-05-06T20:45:12.914Z,16.80
2023-05-06T20:47:39.615Z,16.80
2023-05-06T20:50:06.446Z,16.80
2023-05-06T20:52:33.915Z,16.70
2023-05-06T20:55:00.593Z,16.50
2023-05-06T20:57:28.368Z,16.60
2023-05-06T20:59:56.086Z,16.60
2023-05-06T21:02:23.278Z,16.50
2023-05-06T21:04:50.918Z,16.50
2023-05-06T21:07:17.861Z,16.50
2023-05-06T21:09:44.481Z,16.40
2023-05-06T21:12:11.264Z,16.40
2023-05-06T21:14:37.895Z,16.30
2023-05-06T21:19:31.609Z,16.20
2023-05-06T21:21:58.143Z,16.10
2023-05-06T21:24:24.785Z,16.00
2023-05-06T21:26:51.747Z,15.90
2023-05-06T21:29:18.478Z,15.90
2023-05-06T21:31:45.028Z,15.80
2023-05-06T21:34:11.609Z,15.70
2023-05-06T21:36:38.452Z,15.70
2023-05-06T21:39:12.357Z,15.60
2023-05-06T21:41:39.278Z,15.50
2023-05-06T21:44:06.469Z,15.40
2023-05-06T21:46:33.277Z,15.30
2023-05-06T21:49:00.343Z,15.30
2023-05-06T21:51:28.252Z,15.30
2023-05-06T21:53:54.816Z,15.20
2023-05-06T21:56:22.043Z,15.10
2023-05-06T21:58:48.844Z,15.10
2023-05-06T22:01:15.726Z,15.00
2023-05-06T22:03:42.644Z,15.00
2023-05-06T22:06:09.304Z,15.00
2023-05-06T22:08:35.961Z,14.90
2023-05-06T22:13:29.778Z,14.70
2023-05-06T22:15:56.544Z,14.70
2023-05-06T22:18:23.182Z,14.40
2023-05-06T22:20:50.776Z,14.50
2023-05-06T22:23:19.146Z,14.50
2023-05-06T22:28:12.819Z,14.40
2023-05-06T22:30:39.390Z,14.30
2023-05-06T22:33:06.122Z,14.30
2023-05-06T22:35:32.703Z,14.20
2023-05-06T22:37:59.221Z,14.20
2023-05-06T22:40:27.876Z,14.20
2023-05-06T22:45:21.500Z,14.20
2023-05-06T22:50:15.466Z,15.10
2023-05-06T22:52:42.398Z,14.20
2023-05-06T22:55:09.914Z,14.00
2023-05-06T22:57:36.742Z,14.00
2023-05-06T23:00:05.367Z,13.90
2023-05-06T23:02:32.171Z,13.80
2023-05-06T23:04:59.345Z,13.80
2023-05-06T23:07:25.954Z,13.70
2023-05-06T23:09:52.608Z,13.70
2023-05-06T23:12:19.224Z,13.70
2023-05-06T23:14:45.841Z,13.60
2023-05-06T23:17:12.682Z,13.60
2023-05-06T23:19:39.317Z,13.60
2023-05-06T23:22:05.869Z,13.60
2023-05-06T23:26:59.425Z,13.50
2023-05-06T23:29:25.992Z,13.60
2023-05-06T23:34:19.528Z,13.60
2023-05-06T23:36:46.124Z,13.50
2023-05-06T23:39:12.695Z,13.50
2023-05-06T23:46:33.443Z,13.50
2023-05-06T23:49:00.179Z,13.60
2023-05-06T23:51:26.767Z,13.40
2023-05-06T23:56:21.617Z,13.50
